Time;durP1;ratioP1;P1;durP2;ratioP2;P2;SDS_P1;SDS_P2;PMS_P1;PMS_P2;Temp;Humidity;BMP_temperature;BMP_pressure;BME280_temperature;BME280_humidity;BME280_pressure;Samples;Min_cycle;Max_cycle;Signal;HPM_P1;HPM_P2
2022/07/01 00:00:50;;;;;;;14.75;13.35;;;20.70;99.90;;;;;;5071017;28;20370;-83
2022/07/01 00:03:16;;;;;;;13.20;12.00;;;20.80;99.90;;;;;;5072473;28;20370;-84
2022/07/01 00:05:42;;;;;;;13.38;12.25;;;20.70;99.90;;;;;;5073727;28;20876;-82
2022/07/01 00:08:08;;;;;;;14.45;13.05;;;20.80;99.90;;;;;;5072988;28;20410;-84
2022/07/01 00:10:35;;;;;;;13.95;12.75;;;20.70;99.90;;;;;;5090544;28;20958;-83
2022/07/01 00:13:01;;;;;;;13.93;12.63;;;20.70;99.90;;;;;;5075379;28;20400;-83
2022/07/01 00:15:27;;;;;;;14.95;13.55;;;20.60;99.90;;;;;;5073649;28;20456;-85
2022/07/01 00:17:55;;;;;;;14.80;13.47;;;20.60;99.90;;;;;;5075388;28;20935;-82
2022/07/01 00:20:21;;;;;;;14.07;12.80;;;20.60;99.90;;;;;;5073532;28;20374;-84
2022/07/01 00:22:47;;;;;;;15.13;13.82;;;20.60;99.90;;;;;;5090520;28;20381;-84
2022/07/01 00:25:12;;;;;;;15.40;14.00;;;20.60;99.90;;;;;;5073365;28;20370;-82
2022/07/01 00:27:39;;;;;;;14.48;13.18;;;20.60;99.90;;;;;;5073180;28;20402;-82
2022/07/01 00:30:09;;;;;;;14.60;13.40;;;20.50;99.90;;;;;;5072954;28;20384;-83
2022/07/01 00:32:35;;;;;;;15.68;14.32;;;20.50;99.90;;;;;;5072783;28;20804;-83
2022/07/01 00:35:01;;;;;;;15.48;14.00;;;20.50;99.90;;;;;;5074204;28;20468;-83
2022/07/01 00:37:26;;;;;;;15.30;13.90;;;20.40;99.90;;;;;;5074163;28;20377;-83
2022/07/01 00:39:52;;;;;;;15.57;14.17;;;20.40;99.90;;;;;;5073683;28;20405;-85
2022/07/01 00:42:21;;;;;;;15.37;14.07;;;20.40;99.90;;;;;;5073660;28;20854;-84
2022/07/01 00:44:46;;;;;;;15.50;14.10;;;20.40;99.90;;;;;;5072150;28;20410;-85
2022/07/01 00:47:13;;;;;;;15.47;14.07;;;20.40;99.90;;;;;;5073009;28;20876;-85
2022/07/01 00:49:40;;;;;;;15.75;14.35;;;20.30;99.90;;;;;;5072192;28;20393;-83
2022/07/01 00:52:09;;;;;;;16.17;14.67;;;20.30;99.90;;;;;;5072123;28;20374;-83
2022/07/01 00:54:37;;;;;;;16.25;14.75;;;20.30;99.90;;;;;;5072004;28;20375;-84
2022/07/01 00:57:11;;;;;;;16.38;14.88;;;20.30;99.90;;;;;;5073880;28;20398;-83
2022/07/01 00:59:40;;;;;;;16.45;15.05;;;20.30;99.90;;;;;;5072320;28;20509;-83
2022/07/01 01:02:07;;;;;;;17.10;15.60;;;20.20;99.90;;;;;;5073316;28;20350;-84
2022/07/01 01:04:33;;;;;;;16.97;15.47;;;20.20;99.90;;;;;;5073112;28;20384;-85
2022/07/01 01:07:01;;;;;;;16.52;15.13;;;20.30;99.90;;;;;;5072543;28;20396;-84
2022/07/01 01:09:29;;;;;;;16.85;15.35;;;20.20;99.90;;;;;;5073466;28;20405;-83
2022/07/01 01:11:57;;;;;;;15.55;14.05;;;20.20;99.90;;;;;;5071468;28;20389;-84
2022/07/01 01:14:23;;;;;;;17.65;16.05;;;20.30;99.90;;;;;;5072288;28;20484;-84
2022/07/01 01:16:49;;;;;;;17.03;15.50;;;20.20;99.90;;;;;;5073513;28;20457;-83
2022/07/01 01:19:15;;;;;;;15.95;14.45;;;20.20;99.90;;;;;;5072847;28;20440;-84
2022/07/01 01:21:40;;;;;;;17.67;16.07;;;20.20;99.90;;;;;;5072541;28;20374;-83
2022/07/01 01:24:07;;;;;;;16.40;15.00;;;20.10;99.90;;;;;;5072820;28;20366;-83
2022/07/01 01:26:33;;;;;;;17.50;15.90;;;20.10;99.90;;;;;;5072723;28;20389;-83
2022/07/01 01:28:58;;;;;;;17.67;16.17;;;20.10;99.90;;;;;;5070883;28;20504;-83
2022/07/01 01:31:34;;;;;;;18.37;16.60;;;20.00;99.90;;;;;;5088772;28;20370;-83
2022/07/01 01:34:00;;;;;;;17.52;16.02;;;20.00;99.90;;;;;;5072879;28;20402;-83
2022/07/01 01:36:25;;;;;;;17.80;16.27;;;20.00;99.90;;;;;;5071864;28;20416;-83
2022/07/01 01:38:52;;;;;;;18.52;16.83;;;19.90;99.90;;;;;;5071394;28;20481;-84
2022/07/01 01:41:17;;;;;;;17.77;16.08;;;19.90;99.90;;;;;;5071932;28;20378;-83
2022/07/01 01:43:43;;;;;;;18.17;16.42;;;20.00;99.90;;;;;;5072510;28;20401;-83
2022/07/01 01:46:09;;;;;;;19.23;17.47;;;20.00;99.90;;;;;;5071690;28;20421;-84
2022/07/01 01:48:34;;;;;;;19.17;17.48;;;19.90;99.90;;;;;;5070907;28;20445;-83
2022/07/01 01:51:00;;;;;;;19.20;17.47;;;19.90;99.90;;;;;;5070396;28;20381;-83
2022/07/01 01:53:26;;;;;;;18.45;16.85;;;19.80;99.90;;;;;;5072176;28;20385;-83
2022/07/01 01:55:51;;;;;;;19.02;17.33;;;19.80;99.90;;;;;;5071783;28;20496;-83
2022/07/01 01:58:17;;;;;;;19.63;17.83;;;19.80;99.90;;;;;;5072364;28;20385;-83
2022/07/01 02:00:43;;;;;;;20.48;18.45;;;19.80;99.90;;;;;;5070377;28;20466;-85
2022/07/01 02:03:09;;;;;;;19.90;18.10;;;19.70;99.90;;;;;;5071077;28;20884;-83
2022/07/01 02:05:36;;;;;;;19.70;17.90;;;19.70;99.90;;;;;;5071185;28;20382;-83
2022/07/01 02:08:02;;;;;;;20.80;19.00;;;19.70;99.90;;;;;;5071157;28;20466;-85
2022/07/01 02:10:28;;;;;;;21.10;19.10;;;19.70;99.90;;;;;;5070258;28;20852;-83
2022/07/01 02:12:53;;;;;;;21.63;19.52;;;19.70;99.90;;;;;;5071837;28;20450;-83
2022/07/01 02:15:19;;;;;;;21.10;19.13;;;19.70;99.90;;;;;;5072027;28;20390;-83
2022/07/01 02:17:45;;;;;;;22.45;20.35;;;19.70;99.90;;;;;;5070867;28;20378;-83
2022/07/01 02:20:14;;;;;;;22.07;20.17;;;19.70;99.90;;;;;;5072592;28;21154;-84
2022/07/01 02:22:41;;;;;;;22.00;19.90;;;19.70;99.90;;;;;;5070744;28;20417;-84
2022/07/01 02:25:06;;;;;;;22.58;20.50;;;19.60;99.90;;;;;;5072065;28;20472;-83
2022/07/01 02:27:32;;;;;;;23.60;21.30;;;19.60;99.90;;;;;;5072070;28;20446;-83
2022/07/01 02:29:58;;;;;;;22.70;20.63;;;19.70;99.90;;;;;;5070001;28;20386;-82
2022/07/01 02:32:23;;;;;;;23.08;20.98;;;19.70;99.90;;;;;;5070079;28;20379;-82
2022/07/01 02:34:49;;;;;;;21.93;19.93;;;19.70;99.90;;;;;;5070250;28;20414;-82
2022/07/01 02:37:14;;;;;;;22.27;20.27;;;19.70;99.90;;;;;;5071489;28;20370;-83
2022/07/01 02:39:40;;;;;;;22.83;20.77;;;19.70;99.90;;;;;;5070409;28;20400;-83
2022/07/01 02:42:26;;;;;;;22.13;20.17;;;19.70;99.90;;;;;;5070039;28;20400;-83
2022/07/01 02:44:53;;;;;;;21.85;19.90;;;19.60;99.90;;;;;;5070316;28;20951;-83
2022/07/01 02:47:20;;;;;;;22.27;20.05;;;19.60;99.90;;;;;;5070389;28;20374;-82
2022/07/01 02:49:45;;;;;;;23.53;21.33;;;19.60;99.90;;;;;;5070460;28;20815;-82
2022/07/01 02:52:11;;;;;;;23.63;21.52;;;19.60;99.90;;;;;;5069974;28;20426;-83
2022/07/01 02:54:36;;;;;;;22.87;20.67;;;19.60;99.90;;;;;;5071621;28;20362;-83
2022/07/01 02:57:02;;;;;;;22.90;20.85;;;19.60;99.90;;;;;;5071502;28;20377;-83
2022/07/01 02:59:28;;;;;;;23.33;21.13;;;19.60;99.90;;;;;;5071456;28;21000;-83
2022/07/01 03:01:54;;;;;;;23.20;21.17;;;19.60;99.90;;;;;;5071019;28;20376;-83
2022/07/01 03:04:20;;;;;;;35.92;24.35;;;19.60;99.90;;;;;;5069733;28;20382;-82
2022/07/01 03:06:45;;;;;;;25.25;22.85;;;19.60;99.90;;;;;;5086622;28;20464;-82
2022/07/01 03:09:11;;;;;;;23.87;21.70;;;19.70;99.90;;;;;;5070363;28;20911;-82
2022/07/01 03:11:37;;;;;;;24.63;22.33;;;19.60;99.90;;;;;;5075696;28;20388;-82
2022/07/01 03:14:02;;;;;;;25.48;23.00;;;19.60;99.90;;;;;;5089890;28;20409;-82
2022/07/01 03:16:28;;;;;;;24.13;21.93;;;19.70;99.90;;;;;;5107060;28;20502;-82
2022/07/01 03:18:53;;;;;;;25.42;22.95;;;19.70;99.90;;;;;;5089780;28;20373;-82
2022/07/01 03:21:19;;;;;;;25.23;22.93;;;19.70;99.90;;;;;;5107549;28;20379;-82
2022/07/01 03:23:45;;;;;;;23.85;21.73;;;19.70;99.90;;;;;;5089238;28;20387;-84
2022/07/01 03:26:10;;;;;;;25.20;22.77;;;19.80;99.90;;;;;;5080967;28;20369;-83
2022/07/01 03:28:36;;;;;;;26.02;23.42;;;19.90;99.90;;;;;;5090349;28;20396;-83
2022/07/01 03:31:02;;;;;;;26.10;23.63;;;19.90;99.90;;;;;;5090737;28;20388;-82
2022/07/01 03:33:28;;;;;;;24.83;22.50;;;20.00;99.90;;;;;;5090594;28;20369;-83
2022/07/01 03:35:53;;;;;;;25.40;22.88;;;20.00;99.90;;;;;;5091884;28;20370;-82
2022/07/01 03:38:19;;;;;;;24.13;21.92;;;20.00;99.90;;;;;;5093687;28;20578;-83
2022/07/01 03:40:45;;;;;;;25.70;23.10;;;20.10;99.90;;;;;;5096640;28;20369;-82
2022/07/01 03:43:18;;;;;;;25.52;22.83;;;20.10;99.90;;;;;;5096081;28;20475;-82
2022/07/01 03:45:43;;;;;;;26.52;23.83;;;20.20;99.90;;;;;;5084235;28;20385;-83
2022/07/01 03:48:10;;;;;;;25.57;23.00;;;20.30;99.90;;;;;;5073887;28;20793;-83
2022/07/01 03:50:36;;;;;;;24.90;22.60;;;20.40;99.90;;;;;;5074494;28;20417;-82
2022/07/01 03:55:46;;;;;;;24.63;22.02;;;20.50;99.90;;;;;;5075587;28;20373;-82
2022/07/01 03:58:12;;;;;;;24.23;22.03;;;20.50;99.90;;;;;;5074748;28;20382;-82
2022/07/01 04:00:38;;;;;;;22.73;20.63;;;20.50;99.90;;;;;;5072337;28;20400;-82
2022/07/01 04:03:05;;;;;;;29.80;22.13;;;20.60;99.90;;;;;;5074211;28;20871;-82
2022/07/01 04:05:34;;;;;;;62.17;25.15;;;20.60;99.90;;;;;;5074509;28;20427;-83
2022/07/01 04:08:00;;;;;;;35.63;23.43;;;20.60;99.90;;;;;;5074802;28;20780;-83
2022/07/01 04:10:26;;;;;;;34.42;24.48;;;20.60;99.90;;;;;;5074444;28;20421;-83
2022/07/01 04:12:52;;;;;;;27.47;24.87;;;20.60;99.90;;;;;;5074434;28;20409;-83
2022/07/01 04:15:18;;;;;;;26.23;23.80;;;20.60;99.90;;;;;;5072347;28;20405;-82
2022/07/01 04:17:44;;;;;;;27.48;24.77;;;20.70;99.90;;;;;;5074321;28;20366;-83
2022/07/01 04:20:09;;;;;;;25.30;22.87;;;20.70;99.90;;;;;;5075739;28;20741;-83
2022/07/01 04:22:35;;;;;;;27.52;24.85;;;20.80;99.90;;;;;;5074701;28;20450;-83
2022/07/01 04:25:07;;;;;;;28.53;25.17;;;20.90;99.90;;;;;;5073009;28;20390;-82
2022/07/01 04:27:33;;;;;;;26.35;23.85;;;21.00;99.90;;;;;;5074349;28;20378;-83
2022/07/01 04:29:59;;;;;;;27.63;24.65;;;21.00;99.90;;;;;;5073625;28;20499;-83
2022/07/01 04:32:24;;;;;;;26.35;23.88;;;21.10;99.90;;;;;;5074947;28;20463;-84
2022/07/01 04:34:51;;;;;;;26.08;23.52;;;21.30;99.90;;;;;;5074709;28;20378;-84
2022/07/01 04:37:17;;;;;;;24.67;22.25;;;21.60;99.90;;;;;;5072863;28;20381;-82
2022/07/01 04:39:43;;;;;;;25.30;22.67;;;22.00;99.90;;;;;;5072977;28;20728;-84
2022/07/01 04:42:08;;;;;;;26.40;23.63;;;22.30;99.90;;;;;;5071944;28;20390;-83
2022/07/01 04:44:36;;;;;;;26.17;23.52;;;22.70;99.90;;;;;;5073294;28;20378;-84
2022/07/01 04:47:03;;;;;;;26.88;24.30;;;22.90;99.90;;;;;;5073452;28;20393;-84
2022/07/01 04:49:29;;;;;;;24.95;22.63;;;23.20;99.90;;;;;;5072952;28;20413;-83
2022/07/01 04:51:57;;;;;;;27.00;24.13;;;23.70;99.90;;;;;;5072774;28;20439;-84
2022/07/01 04:54:22;;;;;;;26.88;24.40;;;23.90;99.90;;;;;;5074554;28;20378;-83
2022/07/01 04:56:48;;;;;;;25.20;22.90;;;23.80;99.90;;;;;;5072995;28;20385;-84
2022/07/01 04:59:15;;;;;;;26.73;24.23;;;23.80;99.90;;;;;;5073252;28;20729;-83
2022/07/01 05:01:42;;;;;;;26.67;23.95;;;23.90;99.90;;;;;;5072552;28;20756;-83
2022/07/01 05:04:08;;;;;;;27.40;24.80;;;23.80;99.90;;;;;;5073030;28;20374;-83
2022/07/01 05:06:34;;;;;;;26.30;23.90;;;23.60;99.90;;;;;;5075056;28;20406;-83
2022/07/01 05:09:00;;;;;;;27.75;25.05;;;23.50;99.90;;;;;;5068310;28;20892;-84
2022/07/01 05:11:26;;;;;;;27.05;24.33;;;23.50;99.90;;;;;;5059857;28;20384;-83
2022/07/01 05:13:52;;;;;;;27.50;24.80;;;23.40;99.90;;;;;;5051880;28;20758;-83
2022/07/01 05:16:18;;;;;;;26.52;24.13;;;23.40;99.90;;;;;;5073473;28;20390;-83
2022/07/01 05:24:16;;;;;;;28.30;25.50;;;23.20;99.90;;;;;;5086041;28;20393;-83
2022/07/01 05:26:41;;;;;;;27.92;25.15;;;23.20;99.90;;;;;;5084542;28;20384;-83
2022/07/01 05:29:07;;;;;;;27.97;25.00;;;23.20;99.90;;;;;;5094859;28;20415;-84
2022/07/01 05:31:33;;;;;;;29.02;25.98;;;23.20;99.90;;;;;;5089211;28;20398;-83
2022/07/01 05:33:59;;;;;;;26.67;23.85;;;23.30;99.90;;;;;;5070736;28;20397;-83
2022/07/01 05:36:24;;;;;;;27.58;24.63;;;23.30;99.90;;;;;;5071500;28;20374;-85
2022/07/01 05:38:50;;;;;;;26.07;23.57;;;23.30;99.90;;;;;;5071049;28;20495;-84
2022/07/01 05:41:16;;;;;;;29.65;26.55;;;23.30;99.90;;;;;;5070954;28;20382;-83
2022/07/01 05:43:42;;;;;;;29.53;26.47;;;23.40;99.90;;;;;;5072437;28;20378;-84
2022/07/01 05:46:07;;;;;;;83.00;29.90;;;23.40;99.90;;;;;;5070662;28;20398;-83
2022/07/01 05:48:33;;;;;;;37.25;27.00;;;23.30;99.90;;;;;;5071257;28;20406;-84
2022/07/01 05:50:59;;;;;;;28.17;23.10;;;23.20;99.90;;;;;;5071049;28;20378;-84
2022/07/01 05:53:24;;;;;;;31.97;25.57;;;23.20;99.90;;;;;;5071989;28;20371;-85
2022/07/01 05:55:50;;;;;;;26.83;24.00;;;23.30;99.90;;;;;;5072621;28;20409;-83
2022/07/01 05:58:16;;;;;;;27.75;25.02;;;23.30;99.90;;;;;;5072105;28;20401;-84
2022/07/01 06:00:42;;;;;;;28.73;25.73;;;23.50;99.90;;;;;;5069949;28;20386;-83
2022/07/01 06:03:09;;;;;;;30.23;27.05;;;23.50;99.90;;;;;;5071107;28;20399;-84
2022/07/01 06:05:34;;;;;;;27.48;24.83;;;23.70;99.90;;;;;;5071139;28;20390;-84
2022/07/01 06:08:00;;;;;;;28.17;25.25;;;23.80;99.90;;;;;;5072334;28;20390;-84
2022/07/01 06:10:26;;;;;;;27.33;24.55;;;24.00;99.90;;;;;;5070590;28;20743;-85
2022/07/01 06:12:51;;;;;;;25.05;22.65;;;24.20;99.90;;;;;;5070935;28;20371;-83
2022/07/01 06:15:17;;;;;;;27.70;24.80;;;24.40;99.90;;;;;;5072611;28;20366;-84
2022/07/01 06:17:43;;;;;;;25.95;23.33;;;24.60;99.90;;;;;;5071445;28;20465;-84
2022/07/01 06:20:09;;;;;;;25.90;23.37;;;24.70;99.90;;;;;;5065289;28;20897;-84
2022/07/01 06:22:35;;;;;;;25.80;23.23;;;25.00;99.90;;;;;;5073109;28;20394;-84
2022/07/01 06:25:02;;;;;;;27.77;24.98;;;25.10;99.90;;;;;;5071058;28;20389;-84
2022/07/01 06:27:28;;;;;;;26.20;23.50;;;25.10;99.90;;;;;;5053908;28;20403;-84
2022/07/01 06:29:54;;;;;;;26.73;23.90;;;25.10;99.90;;;;;;5051062;28;20384;-84
2022/07/01 06:32:19;;;;;;;25.38;22.75;;;25.10;99.90;;;;;;5050722;28;20937;-85
2022/07/01 06:34:45;;;;;;;23.60;21.33;;;25.20;99.90;;;;;;5051956;28;20371;-85
2022/07/01 06:37:11;;;;;;;23.35;21.02;;;25.00;99.90;;;;;;5054481;28;20380;-83
2022/07/01 06:39:38;;;;;;;23.10;20.95;;;25.00;99.90;;;;;;5078130;28;20615;-84
2022/07/01 06:42:05;;;;;;;22.38;20.27;;;25.10;99.90;;;;;;5071760;28;20398;-86
2022/07/01 06:44:30;;;;;;;22.52;20.40;;;25.20;99.90;;;;;;5053761;28;20384;-84
2022/07/01 06:46:56;;;;;;;21.97;19.80;;;25.20;99.90;;;;;;5051855;28;20391;-85
2022/07/01 06:49:21;;;;;;;21.40;19.30;;;25.50;99.90;;;;;;5050980;28;20509;-84
2022/07/01 06:51:49;;;;;;;20.80;18.88;;;25.60;99.90;;;;;;5049082;28;20441;-82
2022/07/01 06:54:17;;;;;;;21.33;19.27;;;25.80;99.90;;;;;;5052635;28;20419;-83
2022/07/01 06:56:43;;;;;;;20.42;18.40;;;26.10;99.90;;;;;;5066451;28;20461;-83
2022/07/01 06:59:08;;;;;;;17.53;15.83;;;26.40;99.90;;;;;;5070237;28;20469;-83
2022/07/01 07:01:34;;;;;;;17.27;15.68;;;26.80;99.90;;;;;;5076506;28;20999;-84
2022/07/01 07:04:00;;;;;;;14.60;13.20;;;27.20;99.90;;;;;;5079767;28;20376;-86
2022/07/01 07:06:26;;;;;;;14.40;12.90;;;27.60;99.90;;;;;;5090840;28;20368;-84
2022/07/01 07:08:52;;;;;;;13.77;12.47;;;28.10;99.90;;;;;;5089989;28;20422;-85
2022/07/01 07:11:19;;;;;;;11.52;10.43;;;28.10;99.90;;;;;;5089812;28;20859;-84
2022/07/01 07:13:45;;;;;;;10.60;9.65;;;27.90;99.90;;;;;;5090792;28;20377;-86
2022/07/01 07:16:11;;;;;;;10.70;9.77;;;27.50;99.90;;;;;;5077584;28;20799;-84
2022/07/01 07:18:37;;;;;;;10.53;9.43;;;27.40;99.90;;;;;;5068436;28;20473;-85
2022/07/01 07:21:03;;;;;;;10.93;9.82;;;27.30;99.90;;;;;;5070046;28;20405;-85
2022/07/01 07:23:29;;;;;;;10.25;9.05;;;27.20;99.90;;;;;;5071500;28;20453;-85
2022/07/01 07:25:55;;;;;;;10.55;9.57;;;27.50;99.90;;;;;;5069420;28;20374;-84
2022/07/01 07:28:20;;;;;;;10.85;9.75;;;27.70;99.90;;;;;;5064275;28;20438;-85
2022/07/01 07:30:46;;;;;;;10.80;9.23;;;27.60;99.90;;;;;;5066792;28;20418;-85
2022/07/01 07:33:12;;;;;;;10.32;9.32;;;27.60;99.90;;;;;;5056513;28;20383;-85
2022/07/01 07:35:37;;;;;;;9.73;8.88;;;27.70;99.90;;;;;;5068037;28;20447;-83
2022/07/01 07:38:03;;;;;;;10.03;9.03;;;27.60;99.90;;;;;;5074303;28;20376;-85
2022/07/01 07:40:30;;;;;;;9.50;8.63;;;27.60;99.90;;;;;;5075979;28;20403;-86
2022/07/01 07:42:56;;;;;;;9.90;8.90;;;27.60;99.90;;;;;;5079515;28;20433;-89
2022/07/01 07:45:22;;;;;;;10.70;8.80;;;27.60;99.90;;;;;;5082756;28;20414;-84
2022/07/01 07:47:48;;;;;;;9.87;8.93;;;27.50;99.90;;;;;;5076291;28;20915;-87
2022/07/01 07:50:15;;;;;;;10.03;9.10;;;27.30;99.90;;;;;;5080964;28;20380;-84
2022/07/01 07:52:41;;;;;;;9.00;8.02;;;27.30;99.90;;;;;;5074094;28;20382;-85
2022/07/01 07:55:09;;;;;;;9.07;7.70;;;27.50;99.90;;;;;;5085404;28;20500;-86
2022/07/01 07:57:39;;;;;;;7.45;6.75;;;27.70;99.90;;;;;;5078532;28;20383;-85
2022/07/01 08:00:07;;;;;;;7.75;7.05;;;27.60;99.90;;;;;;5078968;28;20910;-83
2022/07/01 08:02:33;;;;;;;7.18;6.47;;;27.00;99.90;;;;;;5066075;28;20400;-85
2022/07/01 08:04:59;;;;;;;7.40;6.70;;;27.00;99.90;;;;;;5089008;28;20403;-85
2022/07/01 08:07:24;;;;;;;8.10;7.30;;;27.20;99.90;;;;;;5074200;28;20461;-85
2022/07/01 08:09:50;;;;;;;9.20;7.20;;;27.80;99.90;;;;;;5080744;28;20408;-85
2022/07/01 08:34:58;;;;;;;9.20;5.93;;;28.70;99.90;;;;;;5120909;27;20403;-87
2022/07/01 08:37:23;;;;;;;9.07;5.93;;;29.10;99.90;;;;;;5126729;28;20379;-85
2022/07/01 08:39:49;;;;;;;14.75;6.68;;;29.20;99.90;;;;;;5125320;27;20401;-86
2022/07/01 08:42:15;;;;;;;11.75;7.68;;;28.70;99.90;;;;;;5127163;28;20447;-86
2022/07/01 08:44:40;;;;;;;10.93;8.20;;;28.00;99.90;;;;;;5116824;27;20399;-86
2022/07/01 08:47:13;;;;;;;10.88;7.93;;;27.50;99.90;;;;;;5106225;27;20385;-86
2022/07/01 08:49:39;;;;;;;16.00;8.30;;;27.10;99.90;;;;;;5110185;28;20454;-85
2022/07/01 08:52:04;;;;;;;10.90;8.50;;;27.00;99.90;;;;;;5124983;28;20469;-86
2022/07/01 08:54:30;;;;;;;9.13;8.10;;;27.20;99.90;;;;;;5119490;28;20891;-85
2022/07/01 08:56:55;;;;;;;20.08;5.63;;;27.20;99.90;;;;;;5105804;28;20857;-84
2022/07/01 08:59:24;;;;;;;9.50;3.80;;;27.50;99.90;;;;;;5107124;28;20395;-86
2022/07/01 09:02:04;;;;;;;10.55;3.83;;;27.40;99.90;;;;;;5107862;28;21548;-87
2022/07/01 09:04:31;;;;;;;12.55;4.00;;;27.10;99.90;;;;;;5112675;28;20396;-86
2022/07/01 09:07:05;;;;;;;12.02;3.30;;;26.70;99.90;;;;;;5105782;28;20876;-83
2022/07/01 09:09:35;;;;;;;9.83;3.40;;;26.50;99.90;;;;;;5119938;28;20392;-85
2022/07/01 09:12:01;;;;;;;4.35;2.30;;;26.50;99.90;;;;;;5117387;28;20389;-84
2022/07/01 09:14:29;;;;;;;6.40;2.60;;;26.30;99.90;;;;;;5118212;28;20394;-85
2022/07/01 09:16:59;;;;;;;3.38;2.53;;;25.90;99.90;;;;;;5117380;28;20371;-84
2022/07/01 09:19:27;;;;;;;7.03;2.80;;;25.10;99.90;;;;;;5116916;27;20406;-83
2022/07/01 09:21:56;;;;;;;3.33;2.80;;;24.20;99.90;;;;;;5118412;28;20378;-84
2022/07/01 09:24:23;;;;;;;4.10;3.00;;;23.60;99.90;;;;;;5117294;28;20908;-86
2022/07/01 09:27:10;;;;;;;6.95;3.13;;;23.20;99.90;;;;;;5116973;28;20378;-83
2022/07/01 09:29:38;;;;;;;6.10;2.80;;;22.70;99.90;;;;;;5109191;28;20397;-83
2022/07/01 09:32:06;;;;;;;5.25;2.47;;;22.30;99.90;;;;;;5125498;27;20416;-84
2022/07/01 09:34:39;;;;;;;8.93;2.28;;;22.00;99.90;;;;;;5120770;27;20461;-84
2022/07/01 09:37:05;;;;;;;6.35;3.15;;;21.70;99.90;;;;;;5113267;28;20391;-84
2022/07/01 09:39:59;;;;;;;6.55;4.25;;;21.70;99.90;;;;;;5106709;28;20471;-82
2022/07/01 09:42:27;;;;;;;6.97;6.25;;;21.40;99.90;;;;;;5106096;28;20371;-84
2022/07/01 09:45:04;;;;;;;7.13;6.50;;;;;;;;;;5099430;28;20403;-85
2022/07/01 09:47:31;;;;;;;8.38;7.57;;;;;;;;;;5092029;28;20395;-83
2022/07/01 09:49:57;;;;;;;8.32;7.53;;;;;;;;;;5091217;28;20377;-82
2022/07/01 09:52:24;;;;;;;7.47;6.83;;;;;;;;;;5093393;28;20846;-84
2022/07/01 09:54:50;;;;;;;8.52;7.72;;;;;;;;;;5090867;28;20896;-82
2022/07/01 09:57:17;;;;;;;10.13;8.68;;;;;;;;;;5092598;28;20703;-84
2022/07/01 09:59:43;;;;;;;9.60;8.60;;;19.90;99.90;;;;;;5091669;28;20784;-83
2022/07/01 10:02:09;;;;;;;8.10;7.30;;;19.70;99.90;;;;;;5091270;27;20395;-83
2022/07/01 10:04:46;;;;;;;8.47;7.53;;;19.60;99.90;;;;;;5091327;28;20389;-81
2022/07/01 10:07:25;;;;;;;8.60;7.23;;;19.40;99.90;;;;;;5101819;28;20382;-82
2022/07/01 10:10:31;;;;;;;9.43;7.90;;;19.30;99.90;;;;;;5111086;28;20388;-84
2022/07/01 10:12:59;;;;;;;13.73;9.15;;;19.20;99.90;;;;;;5110762;28;20403;-83
2022/07/01 10:15:26;;;;;;;20.40;9.25;;;19.10;99.90;;;;;;5076846;28;20394;-82
2022/07/01 10:17:55;;;;;;;11.35;8.68;;;19.00;99.90;;;;;;5100826;28;20441;-81
2022/07/01 10:20:30;;;;;;;10.07;7.25;;;18.80;99.90;;;;;;5090281;27;20388;-83
2022/07/01 10:23:05;;;;;;;8.90;6.85;;;18.50;99.90;;;;;;5090956;28;20368;-83
2022/07/01 10:25:30;;;;;;;7.55;6.72;;;18.40;99.90;;;;;;5090729;28;20414;-83
2022/07/01 10:28:22;;;;;;;10.33;8.10;;;18.30;99.90;;;;;;5090834;28;20419;-82
2022/07/01 10:30:56;;;;;;;10.77;8.23;;;18.30;99.90;;;;;;5088760;28;21043;-81
2022/07/01 10:33:54;;;;;;;7.88;7.07;;;18.30;99.90;;;;;;5101770;28;20409;-84
2022/07/01 10:36:23;;;;;;;6.40;5.80;;;18.30;99.90;;;;;;5091206;28;20430;-84
2022/07/01 10:39:00;;;;;;;7.10;6.50;;;18.20;99.90;;;;;;5092840;28;20377;-81
2022/07/01 10:41:27;;;;;;;5.80;5.30;;;18.20;99.90;;;;;;5098317;28;20535;-81
2022/07/01 10:43:54;;;;;;;6.30;5.30;;;18.20;99.90;;;;;;5111652;28;20398;-82
2022/07/01 10:46:47;;;;;;;8.13;5.00;;;18.30;99.90;;;;;;5108522;28;20375;-83
2022/07/01 10:49:38;;;;;;;6.80;4.70;;;18.20;99.90;;;;;;5075041;28;20427;-82
2022/07/01 10:52:08;;;;;;;4.63;3.65;;;18.10;99.90;;;;;;5081031;28;20381;-83
2022/07/01 10:54:34;;;;;;;4.78;3.97;;;18.10;99.90;;;;;;5100041;28;20432;-81
2022/07/01 10:57:18;;;;;;;3.70;3.40;;;18.00;99.90;;;;;;5091008;28;20373;-82
2022/07/01 10:59:52;;;;;;;3.72;3.30;;;18.00;99.90;;;;;;5089139;28;20524;-82
2022/07/01 11:02:22;;;;;;;3.47;2.80;;;18.00;99.90;;;;;;5088700;28;20376;-81
2022/07/01 11:04:49;;;;;;;4.15;2.65;;;17.90;99.90;;;;;;5090093;28;20388;-81
2022/07/01 11:07:15;;;;;;;4.60;3.13;;;18.00;99.90;;;;;;5089269;28;20897;-82
2022/07/01 11:09:41;;;;;;;3.90;3.22;;;18.00;99.90;;;;;;5090360;28;20372;-81
2022/07/01 11:12:07;;;;;;;5.10;3.53;;;18.00;99.90;;;;;;5088931;28;20453;-81
2022/07/01 11:14:40;;;;;;;4.72;4.20;;;18.00;99.90;;;;;;5088937;28;20790;-82
2022/07/01 11:17:08;;;;;;;5.20;4.60;;;17.90;99.90;;;;;;5089188;28;20369;-81
2022/07/01 11:19:34;;;;;;;5.28;4.70;;;17.90;99.90;;;;;;5090101;27;20411;-82
2022/07/01 11:22:00;;;;;;;6.07;4.70;;;17.90;99.90;;;;;;5089924;28;20376;-82
2022/07/01 11:24:27;;;;;;;6.18;4.63;;;17.90;99.90;;;;;;5090340;28;20369;-82
2022/07/01 11:27:00;;;;;;;8.93;6.30;;;17.80;99.90;;;;;;5088692;28;20372;-82
2022/07/01 11:29:28;;;;;;;6.63;5.40;;;17.70;99.90;;;;;;5090103;28;20388;-82
2022/07/01 11:31:55;;;;;;;5.80;5.22;;;17.60;99.90;;;;;;5090259;28;20455;-81
2022/07/01 11:34:21;;;;;;;6.20;5.70;;;17.60;99.90;;;;;;5088424;27;20774;-82
2022/07/01 11:39:34;;;;;;;7.60;6.80;;;17.60;99.90;;;;;;5090288;28;20761;-83
2022/07/01 11:42:06;;;;;;;8.00;7.20;;;17.60;99.90;;;;;;5078163;28;20443;-82
2022/07/01 11:44:49;;;;;;;7.75;7.05;;;17.70;99.90;;;;;;5067372;28;20479;-83
2022/07/01 11:47:26;;;;;;;7.03;6.43;;;17.90;99.90;;;;;;5078816;28;20396;-83
2022/07/01 11:49:52;;;;;;;7.70;7.00;;;18.10;99.90;;;;;;5089730;28;20412;-84
2022/07/01 11:52:19;;;;;;;6.95;6.32;;;18.20;99.90;;;;;;5089410;28;20950;-84
2022/07/01 11:54:47;;;;;;;8.37;7.47;;;18.30;99.90;;;;;;5088633;28;20766;-82
2022/07/01 11:57:24;;;;;;;8.88;7.43;;;18.30;99.90;;;;;;5089367;28;20735;-82
2022/07/01 11:59:52;;;;;;;8.47;7.60;;;18.30;99.90;;;;;;5074818;28;20378;-83
2022/07/01 12:02:21;;;;;;;8.63;7.65;;;18.40;99.90;;;;;;5068690;28;20382;-84
2022/07/01 12:04:52;;;;;;;8.48;7.68;;;18.70;99.90;;;;;;5078121;28;20739;-84
2022/07/01 12:07:21;;;;;;;9.00;7.82;;;19.10;99.90;;;;;;5087624;28;20390;-83
2022/07/01 12:09:48;;;;;;;9.65;7.57;;;19.40;99.90;;;;;;5086420;28;20457;-83
2022/07/01 12:12:20;;;;;;;9.43;8.00;;;19.60;99.90;;;;;;5087301;28;20392;-84
2022/07/01 12:14:55;;;;;;;9.43;8.45;;;19.50;99.90;;;;;;5086959;28;20954;-86
2022/07/01 12:17:21;;;;;;;9.73;8.20;;;19.50;99.90;;;;;;5068335;28;20520;-86
2022/07/01 12:19:48;;;;;;;10.23;8.52;;;19.40;99.90;;;;;;5066774;28;20439;-82
2022/07/01 12:22:25;;;;;;;9.05;7.28;;;19.40;99.90;;;;;;5067466;28;20494;-82
2022/07/01 12:25:06;;;;;;;7.72;6.82;;;19.40;99.90;;;;;;5067247;28;20843;-83
2022/07/01 12:27:38;;;;;;;6.97;6.30;;;19.50;99.90;;;;;;5068824;28;20394;-84
2022/07/01 12:30:06;;;;;;;7.47;6.57;;;19.60;99.90;;;;;;5070153;28;20366;-83
2022/07/01 12:32:35;;;;;;;6.38;5.68;;;19.80;99.90;;;;;;5069216;28;20374;-83
2022/07/01 12:35:33;;;;;;;5.90;5.20;;;20.10;99.90;;;;;;5089366;28;20388;-84
2022/07/01 12:38:01;;;;;;;4.75;4.35;;;20.30;99.90;;;;;;5077245;28;20508;-83
2022/07/01 12:40:30;;;;;;;5.17;4.77;;;20.50;99.90;;;;;;5054169;28;20390;-83
2022/07/01 12:42:56;;;;;;;4.47;4.00;;;20.30;99.90;;;;;;5077133;28;20380;-82
2022/07/01 12:45:24;;;;;;;5.13;4.72;;;20.20;99.90;;;;;;5091935;28;20377;-82
2022/07/01 12:47:52;;;;;;;4.97;4.00;;;;;;;;;;5090070;28;20419;-82
2022/07/01 12:50:20;;;;;;;3.78;3.47;;;;;;;;;;5091186;28;20372;-83
2022/07/01 12:53:05;;;;;;;4.50;4.10;;;;;;;;;;5080635;28;20478;-82
2022/07/01 12:55:32;;;;;;;3.35;3.15;;;;;;;;;;5071435;28;20370;-83
2022/07/01 12:57:59;;;;;;;4.13;3.80;;;;;;;;;;5070050;28;20749;-81
2022/07/01 13:00:27;;;;;;;4.15;3.75;;;;;;;;;;5072088;28;20384;-83
2022/07/01 13:02:54;;;;;;;4.30;3.60;;;;;;;;;;5068341;28;20867;-81
2022/07/01 13:05:20;;;;;;;3.30;3.10;;;;;;;;;;5070113;28;20766;-81
2022/07/01 13:07:46;;;;;;;3.37;3.17;;;;;;;;;;5074605;28;21233;-81
2022/07/01 13:10:12;;;;;;;3.67;3.22;;;;;;;;;;5088994;28;20372;-80
2022/07/01 13:12:38;;;;;;;3.45;3.15;;;;;;;;;;5085052;28;20390;-79
2022/07/01 13:15:04;;;;;;;3.50;3.20;;;;;;;;;;5067485;28;20367;-82
2022/07/01 13:17:30;;;;;;;3.20;3.00;;;;;;;;;;5073363;28;20395;-82